Time;durP1;ratioP1;P1;durP2;ratioP2;P2;SDS_P1;SDS_P2;PMS_P1;PMS_P2;Temp;Humidity;BMP_temperature;BMP_pressure;BME280_temperature;BME280_humidity;BME280_pressure;Samples;Min_cycle;Max_cycle;Signal;HPM_P1;HPM_P2
2021/09/30 00:00:50;;;;;;;10.63;3.90;;;14.10;99.90;;;14.41;66.49;102222.66;5114169;28;20085;-79
2021/09/30 00:03:18;;;;;;;16.88;4.95;;;14.10;99.90;;;14.34;66.23;102208.44;5095880;28;20401;-79
2021/09/30 00:05:47;;;;;;;16.27;4.25;;;14.10;99.90;;;14.61;66.81;102223.59;5114157;28;20471;-80
2021/09/30 00:08:15;;;;;;;15.35;4.85;;;14.30;99.90;;;14.53;65.58;102221.81;5114069;28;20074;-79
2021/09/30 00:10:53;;;;;;;16.05;4.40;;;14.30;99.90;;;14.55;66.35;102228.91;5095705;28;20430;-79
2021/09/30 00:13:37;;;;;;;9.20;3.85;;;14.30;99.90;;;14.66;65.82;102236.91;5114036;28;20126;-80
2021/09/30 00:32:51;;;;;;;10.35;3.70;;;14.40;99.90;;;14.77;64.31;102246.66;5113742;28;20047;-80
2021/09/30 00:35:34;;;;;;;14.70;4.50;;;14.50;99.90;;;14.83;64.53;102246.69;5113445;28;20105;-79
2021/09/30 00:46:26;;;;;;;13.65;3.83;;;14.30;99.90;;;14.52;65.01;102252.00;5095293;28;20093;-79
2021/09/30 00:51:47;;;;;;;7.30;3.47;;;14.30;99.90;;;14.42;64.95;102259.03;5099463;28;20055;-80
2021/09/30 01:46:41;;;;;;;12.23;4.72;;;14.30;99.90;;;14.52;62.76;102230.69;5098877;28;20088;-78
2021/09/30 01:52:53;;;;;;;17.60;4.07;;;14.40;99.90;;;14.62;63.01;102261.75;5116523;28;20409;-79
2021/09/30 01:58:39;;;;;;;11.25;4.05;;;14.30;99.90;;;14.44;64.13;102235.97;5097854;28;20060;-79
2021/09/30 02:18:58;;;;;;;14.55;4.38;;;14.30;99.90;;;14.67;64.00;102268.00;5097976;28;20496;-80
2021/09/30 02:22:04;;;;;;;13.68;4.25;;;14.40;99.90;;;14.73;63.68;102255.53;5097861;28;20143;-80
2021/09/30 02:27:43;;;;;;;11.00;4.28;;;14.50;99.90;;;14.85;63.40;102270.66;5097507;28;20538;-80
2021/09/30 02:39:12;;;;;;;17.13;4.50;;;14.50;99.90;;;14.64;63.91;102247.56;5063931;28;20457;-79
2021/09/30 02:59:06;;;;;;;15.60;4.45;;;14.50;99.90;;;14.81;62.64;102256.44;5097561;28;20051;-79
2021/09/30 03:01:38;;;;;;;14.23;4.32;;;14.50;99.90;;;14.79;62.41;102250.22;5097436;28;20472;-80
2021/09/30 03:04:08;;;;;;;19.83;5.43;;;14.60;99.90;;;14.89;62.22;102273.31;5096827;28;20044;-79
2021/09/30 03:06:38;;;;;;;16.00;4.40;;;14.60;99.90;;;14.87;62.16;102271.53;5097105;28;20451;-78
2021/09/30 03:09:10;;;;;;;14.52;5.05;;;14.60;99.90;;;14.79;62.72;102266.22;5115294;28;20052;-80
2021/09/30 03:11:41;;;;;;;11.50;3.97;;;14.60;99.90;;;14.93;62.16;102275.09;5115239;28;20067;-79
2021/09/30 03:14:12;;;;;;;13.23;4.32;;;14.60;99.90;;;14.73;61.61;102234.22;5115325;28;20040;-79
2021/09/30 03:16:43;;;;;;;15.52;4.55;;;14.60;99.90;;;15.00;61.84;102281.34;5096844;28;20054;-79
2021/09/30 03:19:33;;;;;;;13.48;3.97;;;14.70;99.90;;;14.99;61.12;102271.53;5096947;28;20119;-79
2021/09/30 03:22:14;;;;;;;9.00;4.05;;;14.70;99.90;;;15.06;60.44;102282.19;5096806;28;20050;-79
2021/09/30 03:24:47;;;;;;;15.95;4.32;;;14.80;99.90;;;15.05;60.41;102280.44;5114917;28;20060;-79
2021/09/30 03:27:17;;;;;;;10.48;4.20;;;14.80;99.90;;;14.98;60.03;102283.09;5096626;28;20138;-79
2021/09/30 03:29:48;;;;;;;13.85;4.07;;;14.70;99.90;;;15.01;60.03;102272.44;5115278;28;20040;-80
2021/09/30 03:32:18;;;;;;;11.20;3.95;;;14.80;99.90;;;14.98;60.11;102288.44;5113499;28;20104;-79
2021/09/30 03:34:55;;;;;;;11.75;3.75;;;14.70;99.90;;;14.88;59.72;102287.53;5096547;28;20135;-79
2021/09/30 03:37:25;;;;;;;15.25;4.97;;;14.60;99.90;;;13.17;59.45;102025.50;5096443;28;20048;-79
2021/09/30 03:39:55;;;;;;;11.30;4.25;;;14.60;99.90;;;14.98;59.40;102302.63;5096357;28;20047;-79
2021/09/30 03:42:24;;;;;;;11.02;4.03;;;14.70;99.90;;;14.91;59.49;102289.31;5114953;28;20044;-79
2021/09/30 03:45:06;;;;;;;10.38;4.00;;;14.70;99.90;;;14.78;59.57;102255.56;5096348;28;20043;-79
2021/09/30 03:47:35;;;;;;;13.50;3.67;;;14.70;99.90;;;15.02;59.27;102293.75;5096266;28;20055;-79
2021/09/30 03:50:14;;;;;;;13.20;4.18;;;14.70;99.90;;;14.68;59.78;102230.69;5114455;28;20040;-79
2021/09/30 03:52:56;;;;;;;15.80;4.50;;;14.80;99.90;;;15.10;59.83;102299.97;5096125;28;20055;-80
2021/09/30 03:55:44;;;;;;;12.43;4.30;;;14.80;99.90;;;15.10;59.79;102305.31;5114114;28;20074;-80
2021/09/30 04:00:59;;;;;;;13.30;4.75;;;14.80;99.90;;;15.20;59.98;102309.75;5095572;28;20071;-79
2021/09/30 04:03:28;;;;;;;11.57;4.13;;;14.90;99.90;;;15.20;59.73;102306.19;5095786;28;20073;-80
2021/09/30 04:05:56;;;;;;;14.40;4.45;;;14.90;99.90;;;15.20;59.58;102301.75;5095813;28;20047;-81
2021/09/30 04:08:25;;;;;;;14.93;4.32;;;14.90;99.90;;;15.24;59.69;102307.97;5095876;28;20035;-80
2021/09/30 04:10:56;;;;;;;14.38;4.63;;;14.90;99.90;;;15.14;60.28;102307.09;5095813;28;20138;-78
2021/09/30 04:13:24;;;;;;;;;;;14.80;99.90;;;15.18;59.71;102307.97;5096241;28;20051;-78
2021/09/30 04:15:52;;;;;;;12.80;4.30;;;15.00;99.90;;;15.04;59.33;102283.97;5095745;28;20257;-80
2021/09/30 04:18:21;;;;;;;12.05;4.15;;;14.90;99.90;;;15.13;59.28;102315.09;5095721;28;20043;-78
2021/09/30 04:20:51;;;;;;;12.85;4.50;;;14.90;99.90;;;15.16;59.08;102307.97;5095748;28;20101;-80
2021/09/30 04:23:19;;;;;;;15.05;4.40;;;14.90;99.90;;;14.52;59.35;102212.91;5114185;28;20100;-81
2021/09/30 04:25:49;;;;;;;13.63;4.35;;;14.80;99.90;;;15.17;59.23;102325.75;5095361;28;20409;-78
2021/09/30 04:28:20;;;;;;;15.73;4.47;;;14.90;99.90;;;15.14;59.51;102322.19;5095304;28;20146;-78
2021/09/30 04:30:53;;;;;;;12.95;4.20;;;14.90;99.90;;;15.14;59.38;102304.41;5095578;28;20409;-78
2021/09/30 04:33:29;;;;;;;14.50;4.65;;;14.90;99.90;;;15.20;59.73;102328.41;5095437;28;20048;-78
2021/09/30 04:35:58;;;;;;;12.13;4.50;;;14.90;99.90;;;15.19;59.70;102331.09;5095483;28;20071;-78
2021/09/30 04:38:26;;;;;;;13.02;3.85;;;14.90;99.90;;;15.28;60.10;102331.97;5095397;28;20514;-78
2021/09/30 04:40:55;;;;;;;14.57;5.30;;;15.00;99.90;;;15.16;60.38;102320.41;5095055;28;20075;-78
2021/09/30 04:43:24;;;;;;;13.70;4.40;;;14.90;99.90;;;15.33;60.36;102334.63;5095285;28;20089;-78
2021/09/30 04:45:53;;;;;;;13.77;4.30;;;15.00;99.90;;;15.23;60.77;102323.06;5113509;28;20040;-78
2021/09/30 04:48:22;;;;;;;8.00;3.92;;;15.00;99.90;;;15.13;60.09;102329.31;5113739;28;20046;-78
2021/09/30 04:50:59;;;;;;;12.90;4.22;;;14.90;99.90;;;15.10;60.46;102329.28;5095323;28;20071;-79
2021/09/30 04:53:28;;;;;;;12.15;3.72;;;14.90;99.90;;;14.99;60.41;102328.41;5095142;28;20052;-78
2021/09/30 04:55:56;;;;;;;10.02;3.83;;;14.70;99.90;;;14.93;60.23;102325.72;5095088;28;20042;-78
2021/09/30 04:58:27;;;;;;;13.50;4.30;;;14.70;99.90;;;14.90;60.31;102320.41;5091224;28;20052;-78
2021/09/30 05:00:56;;;;;;;18.52;4.43;;;14.70;99.90;;;14.95;60.46;102329.28;5093121;28;20040;-78
2021/09/30 05:03:25;;;;;;;15.48;4.70;;;14.70;99.90;;;14.63;60.21;102271.53;5091740;28;20428;-78
2021/09/30 05:05:54;;;;;;;10.63;4.35;;;14.70;99.90;;;14.75;60.24;102317.69;5091682;28;20044;-78
2021/09/30 05:08:22;;;;;;;10.98;4.03;;;14.60;99.90;;;14.81;59.69;102298.16;5091499;28;20068;-78
2021/09/30 05:10:51;;;;;;;12.23;4.15;;;14.70;99.90;;;15.05;59.40;102328.41;5091757;28;20451;-78
2021/09/30 05:13:22;;;;;;;10.45;3.83;;;14.80;99.90;;;15.07;58.89;102331.06;5093567;28;20052;-78
2021/09/30 05:15:53;;;;;;;11.40;3.90;;;14.70;99.90;;;15.14;58.81;102332.84;5095606;28;20055;-78
2021/09/30 05:18:49;;;;;;;16.13;4.43;;;14.80;99.90;;;14.66;57.99;102259.09;5096273;28;20048;-79
2021/09/30 05:21:18;;;;;;;11.07;3.80;;;14.80;99.90;;;14.83;57.59;102289.31;5095709;28;20551;-78
2021/09/30 05:23:47;;;;;;;8.55;3.60;;;14.80;99.90;;;14.94;57.36;102292.84;5095536;28;20040;-78
2021/09/30 05:26:16;;;;;;;8.13;3.53;;;14.90;99.90;;;15.13;56.64;102328.41;5095273;28;20149;-78
2021/09/30 05:28:45;;;;;;;10.57;3.78;;;14.80;99.90;;;15.13;56.84;102331.97;5095540;28;20294;-78
2021/09/30 05:31:15;;;;;;;12.82;3.88;;;14.80;99.90;;;15.17;56.33;102323.09;5095205;28;20078;-78
2021/09/30 05:34:16;;;;;;;14.38;4.03;;;14.90;99.90;;;15.09;55.88;102314.19;5084131;28;20063;-78
2021/09/30 05:36:45;;;;;;;12.07;3.92;;;14.80;99.90;;;14.95;56.33;102307.97;5096301;28;20046;-78
2021/09/30 05:39:14;;;;;;;8.52;3.70;;;14.70;99.90;;;15.10;55.88;102318.63;5095264;28;20040;-78
2021/09/30 05:41:44;;;;;;;8.98;3.90;;;14.80;99.90;;;15.21;55.36;102329.31;5095187;28;20490;-78
2021/09/30 05:44:15;;;;;;;7.25;3.30;;;14.80;99.90;;;15.28;55.12;102313.31;5095201;28;20489;-77
2021/09/30 05:46:47;;;;;;;14.25;4.22;;;15.00;99.90;;;15.35;55.71;102323.06;5095156;28;20044;-77
2021/09/30 05:49:16;;;;;;;9.60;3.60;;;15.00;99.90;;;15.06;55.59;102268.88;5096256;28;20378;-77
2021/09/30 05:51:48;;;;;;;8.90;3.80;;;15.10;99.90;;;15.37;55.12;102313.28;5095042;28;20126;-78
2021/09/30 05:54:39;;;;;;;10.32;4.07;;;15.10;99.90;;;15.43;55.13;102317.75;5095090;28;20048;-78
2021/09/30 05:57:22;;;;;;;10.18;3.90;;;15.10;99.90;;;15.38;55.40;102309.75;5094467;28;20114;-77
2021/09/30 05:59:51;;;;;;;8.45;3.67;;;15.10;99.90;;;15.46;55.59;102324.88;5095287;28;20524;-78
2021/09/30 06:10:46;;;;;;;8.30;3.78;;;15.50;99.90;;;15.88;55.46;102327.47;5094504;28;20040;-78
2021/09/30 06:13:16;;;;;;;9.50;3.80;;;15.60;99.90;;;15.98;55.44;102321.22;5095958;28;20044;-78
2021/09/30 06:15:45;;;;;;;;;;;15.70;99.90;;;15.94;55.29;102300.75;5095115;28;20113;-78
2021/09/30 06:18:17;;;;;;;8.75;3.92;;;15.80;99.90;;;16.06;54.97;102314.06;5094560;28;19924;-78
2021/09/30 06:20:50;;;;;;;9.68;3.58;;;15.90;99.90;;;15.88;54.78;102287.44;5094669;28;20063;-79
2021/09/30 06:23:21;;;;;;;8.50;3.85;;;15.90;99.90;;;15.30;56.29;102207.56;5094536;28;20052;-78
2021/09/30 06:25:50;;;;;;;8.07;3.30;;;15.80;99.90;;;15.87;57.22;102331.91;5093452;28;20148;-78
2021/09/30 06:28:19;;;;;;;9.52;3.67;;;15.60;99.90;;;15.60;57.75;102325.75;5094348;28;20135;-78
2021/09/30 06:30:51;;;;;;;12.35;3.67;;;15.30;99.90;;;15.73;57.64;102333.72;5094440;28;20064;-79
2021/09/30 06:33:59;;;;;;;9.93;3.85;;;15.30;99.90;;;16.10;57.14;102338.06;5052838;28;20057;-79
2021/09/30 06:36:35;;;;;;;11.68;3.95;;;15.70;99.90;;;16.56;56.09;102335.22;5036172;28;20067;-79
2021/09/30 06:39:05;;;;;;;8.60;3.95;;;16.10;99.90;;;17.02;55.61;102332.25;5066212;28;20485;-80
2021/09/30 06:41:37;;;;;;;13.30;4.28;;;16.60;99.90;;;17.26;55.10;102333.84;5094041;28;20048;-79
2021/09/30 06:44:53;;;;;;;7.00;3.45;;;17.00;99.90;;;17.36;55.20;102340.91;5072623;28;20040;-80
2021/09/30 06:47:40;;;;;;;11.32;3.90;;;17.10;99.90;;;17.19;55.45;102341.94;5093806;28;20063;-79
2021/09/30 06:50:25;;;;;;;8.43;3.67;;;17.00;99.90;;;16.91;56.07;102326.09;5093745;28;20052;-79
2021/09/30 06:53:12;;;;;;;9.23;3.30;;;16.80;99.90;;;16.80;56.47;102332.41;5097231;28;20058;-79
2021/09/30 06:56:06;;;;;;;9.50;3.65;;;16.60;99.90;;;16.91;56.90;102338.56;5082971;28;20055;-79
2021/09/30 06:58:47;;;;;;;10.25;4.07;;;16.50;99.90;;;16.83;57.61;102330.59;5095197;28;20116;-79
2021/09/30 07:01:32;;;;;;;11.45;4.20;;;16.50;99.90;;;16.72;57.87;102335.16;5095088;28;20135;-77
2021/09/30 07:04:21;;;;;;;7.95;3.53;;;16.50;99.90;;;16.93;58.25;102344.78;5095005;28;20464;-75
2021/09/30 07:07:32;;;;;;;9.70;3.80;;;16.60;99.90;;;16.83;58.88;102333.28;5094395;28;20091;-75
2021/09/30 07:10:01;;;;;;;13.10;4.33;;;16.60;99.90;;;16.93;59.12;102321.63;5094948;28;20404;-74
2021/09/30 07:12:29;;;;;;;9.80;4.10;;;16.80;99.90;;;16.82;59.01;102294.06;5094505;28;20032;-75
2021/09/30 07:14:58;;;;;;;13.60;4.53;;;16.80;99.90;;;17.00;59.34;102320.69;5094560;28;20040;-74
2021/09/30 07:17:28;;;;;;;10.98;4.38;;;16.90;99.90;;;17.22;59.32;102348.16;5094284;28;20040;-75
2021/09/30 07:19:58;;;;;;;12.68;4.93;;;16.90;99.90;;;17.21;59.21;102341.00;5093344;28;20040;-74
2021/09/30 07:22:27;;;;;;;14.53;4.47;;;17.00;99.90;;;17.28;59.53;102355.22;5093219;28;20143;-72
2021/09/30 07:24:57;;;;;;;12.40;4.18;;;17.00;99.90;;;17.25;59.69;102360.63;5094356;28;20331;-74
2021/09/30 07:27:25;;;;;;;9.95;4.20;;;17.00;99.90;;;17.29;60.08;102365.00;5094636;28;20412;-74
2021/09/30 07:29:54;;;;;;;10.85;4.65;;;17.00;99.90;;;17.34;60.06;102356.06;5094494;28;20048;-74
2021/09/30 07:32:24;;;;;;;10.40;4.28;;;17.00;99.90;;;17.44;59.36;102364.91;5094374;28;20044;-74
2021/09/30 07:34:53;;;;;;;9.48;4.38;;;17.10;99.90;;;17.02;59.23;102265.41;5094247;28;20595;-73
2021/09/30 07:37:22;;;;;;;14.20;4.40;;;17.30;99.90;;;17.50;58.65;102359.53;5093238;28;20050;-74
2021/09/30 07:39:50;;;;;;;10.13;4.03;;;17.20;99.90;;;17.26;58.88;102336.53;5094371;28;20439;-74
2021/09/30 07:42:21;;;;;;;10.38;4.03;;;17.10;99.90;;;17.26;59.15;102365.03;5094292;28;20055;-74
2021/09/30 07:44:49;;;;;;;9.77;3.92;;;16.90;99.90;;;17.08;59.66;102352.69;5094009;28;20052;-72
2021/09/30 07:47:17;;;;;;;9.90;4.00;;;16.80;99.90;;;17.05;59.57;102342.03;5093856;28;20493;-75
2021/09/30 07:49:46;;;;;;;10.27;4.32;;;16.80;99.90;;;17.06;60.00;102359.84;5093822;28;20044;-75
2021/09/30 07:52:14;;;;;;;11.57;4.40;;;16.80;99.90;;;17.23;60.30;102365.09;5093802;28;20052;-76
2021/09/30 07:54:46;;;;;;;11.75;3.95;;;16.90;99.90;;;17.05;59.70;102318.84;5093732;28;20090;-76
2021/09/30 07:57:14;;;;;;;10.73;4.22;;;17.00;99.90;;;17.42;60.14;102361.34;5101638;28;20051;-76
2021/09/30 07:59:44;;;;;;;11.75;4.18;;;17.10;99.90;;;17.72;59.47;102371.81;5114001;28;20489;-76
2021/09/30 08:02:12;;;;;;;13.17;4.60;;;17.30;99.90;;;18.03;59.01;102373.25;5114542;28;20484;-76
2021/09/30 08:04:41;;;;;;;13.13;4.55;;;17.60;99.90;;;18.05;57.86;102376.81;5113947;28;20492;-75
2021/09/30 08:07:10;;;;;;;8.07;3.50;;;17.80;99.90;;;18.01;57.63;102375.06;5113841;28;20039;-76
2021/09/30 08:09:38;;;;;;;10.23;4.50;;;17.70;99.90;;;17.81;58.49;102344.94;5113858;28;20036;-75
2021/09/30 08:12:10;;;;;;;10.88;4.60;;;17.70;99.90;;;17.94;58.30;102378.72;5113434;28;20104;-76
2021/09/30 08:14:38;;;;;;;8.50;3.90;;;17.60;99.90;;;17.78;58.86;102369.97;5113777;28;20031;-75
2021/09/30 08:17:08;;;;;;;11.65;4.13;;;17.50;99.90;;;17.27;59.58;102324.91;5114010;28;20047;-76
2021/09/30 08:19:36;;;;;;;9.68;4.13;;;17.40;99.90;;;17.61;59.81;102368.34;5113588;28;20048;-76
2021/09/30 08:22:05;;;;;;;11.07;4.00;;;17.40;99.90;;;17.43;60.28;102374.72;5113581;28;20086;-76
2021/09/30 08:24:33;;;;;;;12.45;4.30;;;17.20;99.90;;;17.34;60.86;102381.94;5113677;28;20108;-76
2021/09/30 08:27:02;;;;;;;10.48;4.00;;;17.00;99.90;;;16.98;61.27;102335.84;5113888;28;20139;-74
2021/09/30 08:29:30;;;;;;;12.38;4.00;;;16.80;99.90;;;16.93;61.90;102367.06;5113297;28;20118;-74
2021/09/30 08:31:59;;;;;;;11.90;4.10;;;16.60;99.90;;;16.88;61.87;102379.56;5113318;28;20073;-74
2021/09/30 08:40:26;;;;;;;10.40;4.22;;;16.30;99.90;;;16.31;62.25;102337.09;5093549;23;20281;-77
2021/09/30 08:42:56;;;;;;;10.00;3.97;;;16.10;99.90;;;16.38;62.48;102367.31;4916235;29;20182;-79
2021/09/30 08:45:25;;;;;;;10.80;4.68;;;16.10;99.90;;;16.17;62.75;102341.59;4916032;29;20343;-78
2021/09/30 08:47:58;;;;;;;9.32;3.70;;;16.00;99.90;;;15.75;62.65;102270.59;4914168;29;20076;-79
2021/09/30 08:50:28;;;;;;;10.73;4.05;;;15.90;99.90;;;15.76;62.51;102277.69;4915740;29;20096;-79
2021/09/30 08:52:57;;;;;;;13.33;4.70;;;15.90;99.90;;;16.17;62.66;102350.50;4915517;29;20062;-78
2021/09/30 08:55:27;;;;;;;11.15;4.05;;;15.80;99.90;;;16.08;63.00;102342.53;4930422;29;20663;-79
2021/09/30 08:58:06;;;;;;;10.85;4.85;;;15.80;99.90;;;16.19;63.16;102350.50;4915897;29;20059;-78
2021/09/30 09:00:37;;;;;;;;;;;15.80;99.90;;;15.86;63.15;102287.44;4916108;29;20055;-79
2021/09/30 09:03:06;;;;;;;;;;;15.90;99.90;;;16.22;63.64;102355.81;4916092;29;20238;-78
2021/09/30 09:05:37;;;;;;;9.65;4.30;;;15.90;99.90;;;16.03;63.57;102327.41;4930425;29;19987;-78
2021/09/30 09:08:08;;;;;;;7.80;3.88;;;15.90;99.90;;;16.21;64.21;102346.03;4930150;29;20064;-78
2021/09/30 09:10:40;;;;;;;10.48;4.10;;;15.90;99.90;;;16.11;64.34;102346.97;4915458;29;20052;-78
2021/09/30 09:13:11;;;;;;;9.68;3.92;;;15.80;99.90;;;16.02;64.69;102339.88;4915723;29;20048;-78
2021/09/30 09:15:43;;;;;;;8.38;4.22;;;15.70;99.90;;;16.09;64.23;102338.06;4915959;29;20040;-78
2021/09/30 09:18:18;;;;;;;11.43;4.47;;;15.80;99.90;;;16.00;63.97;102335.44;4915730;29;20048;-78
2021/09/30 09:20:52;;;;;;;8.40;4.00;;;15.70;99.90;;;15.96;63.68;102339.00;4914572;29;20123;-79
2021/09/30 09:23:20;;;;;;;11.50;4.65;;;15.70;99.90;;;15.90;63.74;102317.66;4915833;29;20052;-77
2021/09/30 09:26:07;;;;;;;9.02;4.25;;;15.70;99.90;;;16.09;63.42;102346.06;4915509;29;20044;-75
2021/09/30 09:28:39;;;;;;;14.27;4.50;;;15.70;99.90;;;15.96;63.15;102305.19;4915749;29;20067;-76
2021/09/30 09:31:08;;;;;;;10.75;3.90;;;15.80;99.90;;;16.19;62.27;102340.72;4915747;29;20515;-76
2021/09/30 09:33:39;;;;;;;10.60;3.90;;;15.90;99.90;;;16.35;62.71;102330.84;4915379;29;20040;-72
2021/09/30 09:36:12;;;;;;;14.90;4.35;;;16.00;99.90;;;16.44;61.42;102336.13;4915636;29;20052;-77
2021/09/30 09:38:51;;;;;;;10.30;3.83;;;16.10;99.90;;;16.46;61.57;102328.09;4913748;29;20048;-77
2021/09/30 09:41:29;;;;;;;11.45;4.35;;;16.10;99.90;;;16.48;61.17;102337.94;4915926;29;20055;-80
2021/09/30 09:44:00;;;;;;;10.07;4.28;;;16.20;99.90;;;16.39;60.98;102334.38;4915412;29;20048;-73
2021/09/30 09:46:32;;;;;;;12.18;4.10;;;16.10;99.90;;;16.43;61.25;102326.38;4930055;29;20070;-73
2021/09/30 09:49:03;;;;;;;8.07;3.53;;;16.10;99.90;;;16.55;61.70;102337.00;4915252;29;20055;-73
2021/09/30 09:51:36;;;;;;;;;;;16.20;99.90;;;16.49;60.66;102320.13;4915896;29;20044;-75
2021/09/30 09:54:13;;;;;;;13.77;3.92;;;16.30;99.90;;;16.45;61.04;102291.63;4915489;29;19934;-73
2021/09/30 09:56:43;;;;;;;11.80;4.13;;;16.30;99.90;;;16.59;61.72;102322.72;4915404;29;20494;-77
2021/09/30 09:59:12;;;;;;;;;;;16.30;99.90;;;16.71;61.86;102328.00;4915695;29;20500;-77
2021/09/30 10:01:43;;;;;;;13.05;3.90;;;16.40;99.90;;;16.68;61.63;102328.03;4918889;29;20013;-77
2021/09/30 10:04:15;;;;;;;10.75;4.10;;;16.50;99.90;;;16.59;61.40;102320.06;4918910;29;20379;-78
2021/09/30 10:06:43;;;;;;;10.93;4.10;;;16.30;99.90;;;16.60;61.87;102329.88;4917494;29;20060;-84
2021/09/30 10:09:14;;;;;;;13.77;4.43;;;16.30;99.90;;;16.57;61.81;102335.19;4918684;29;20136;-75
2021/09/30 10:11:44;;;;;;;7.43;3.53;;;16.30;99.90;;;16.50;61.90;102332.56;4917283;29;20063;-76
2021/09/30 10:14:13;;;;;;;8.88;3.95;;;16.30;99.90;;;15.99;61.65;102251.78;4918468;29;20119;-84
2021/09/30 10:16:47;;;;;;;14.13;4.28;;;16.10;99.90;;;15.78;62.13;102243.88;4918833;29;20147;-80
2021/09/30 10:19:17;;;;;;;8.38;3.55;;;16.20;99.90;;;16.43;61.34;102320.13;4918540;29;20104;-80
2021/09/30 10:21:46;;;;;;;10.75;4.55;;;16.10;99.90;;;16.27;61.03;102314.88;4918283;29;20044;-80
2021/09/30 10:24:17;;;;;;;13.68;4.10;;;16.00;99.90;;;16.37;61.93;102318.38;4918483;29;20352;-79
2021/09/30 10:26:53;;;;;;;8.98;3.72;;;16.00;99.90;;;16.25;62.10;102330.00;4918269;29;20407;-77
2021/09/30 10:29:42;;;;;;;9.55;4.38;;;16.00;99.90;;;16.15;61.99;102328.25;4918185;29;20048;-78
2021/09/30 10:32:12;;;;;;;10.65;3.78;;;15.90;99.90;;;16.11;61.85;102304.25;4932883;29;20052;-77
2021/09/30 10:34:44;;;;;;;10.75;4.43;;;15.80;99.90;;;16.12;61.61;102298.03;4916844;29;20048;-78
2021/09/30 10:37:22;;;;;;;9.65;3.85;;;15.80;99.90;;;15.95;61.82;102290.06;4918003;29;20051;-78
2021/09/30 10:40:18;;;;;;;10.77;4.80;;;15.70;99.90;;;15.98;61.23;102311.44;4917910;29;20056;-77
2021/09/30 10:42:55;;;;;;;11.20;3.25;;;15.70;99.90;;;15.96;61.80;102309.66;4918078;29;20048;-77
2021/09/30 10:45:27;;;;;;;12.13;3.80;;;15.70;99.90;;;15.92;62.06;102289.19;4917912;29;20052;-76
2021/09/30 10:48:06;;;;;;;9.55;4.18;;;15.70;99.90;;;16.11;62.40;102315.81;4917966;29;20055;-76
2021/09/30 10:50:54;;;;;;;12.80;3.83;;;15.70;99.90;;;16.14;62.17;102318.47;4917939;29;20068;-77
2021/09/30 10:54:01;;;;;;;10.18;3.55;;;15.80;99.90;;;16.14;62.06;102309.59;4917897;29;20048;-78
2021/09/30 10:56:40;;;;;;;9.55;3.70;;;15.80;99.90;;;15.92;62.03;102315.88;4917840;29;20465;-74
2021/09/30 10:59:50;;;;;;;9.48;4.00;;;15.70;99.90;;;15.97;62.79;102322.97;4917993;29;20469;-77
2021/09/30 11:02:18;;;;;;;10.60;3.78;;;15.60;99.90;;;15.95;62.73;102295.41;4913807;29;20514;-73
2021/09/30 11:05:05;;;;;;;10.25;4.13;;;15.70;99.90;;;15.86;62.76;102307.88;4917661;29;20047;-73
2021/09/30 11:07:34;;;;;;;10.00;4.60;;;15.50;99.90;;;15.74;62.63;102299.91;4917732;29;20076;-73
2021/09/30 11:10:25;;;;;;;7.15;3.72;;;15.50;99.90;;;15.75;63.55;102296.38;4932003;29;20051;-73
2021/09/30 11:13:19;;;;;;;9.52;3.47;;;15.40;99.90;;;15.73;63.27;102301.72;4917755;29;20122;-74
2021/09/30 11:16:11;;;;;;;9.13;4.18;;;15.40;99.90;;;15.81;63.31;102296.34;4917651;29;20056;-74
2021/09/30 11:18:53;;;;;;;11.15;3.90;;;15.50;99.90;;;15.76;63.26;102296.34;4916322;29;20052;-74
2021/09/30 11:21:45;;;;;;;10.18;3.58;;;15.50;99.90;;;15.77;63.25;102283.91;4918044;29;20107;-74
2021/09/30 11:24:41;;;;;;;8.00;3.60;;;15.50;99.90;;;15.82;63.04;102295.44;4917737;29;20517;-74
2021/09/30 11:27:32;;;;;;;12.27;3.80;;;15.50;99.90;;;15.78;63.36;102285.69;4917146;29;20059;-74
2021/09/30 11:30:25;;;;;;;8.00;3.75;;;15.40;99.90;;;15.78;63.40;102288.34;4916439;29;20147;-74
2021/09/30 11:32:59;;;;;;;10.70;3.55;;;15.50;99.90;;;15.90;63.43;102297.22;4917702;29;20047;-74
2021/09/30 11:35:29;;;;;;;10.77;3.65;;;15.50;99.90;;;15.93;63.30;102280.31;4917631;29;20075;-73
2021/09/30 11:37:57;;;;;;;8.45;4.18;;;15.60;99.90;;;15.87;62.23;102280.31;4916324;29;20482;-74
2021/09/30 11:40:26;;;;;;;9.55;3.85;;;15.60;99.90;;;15.93;62.35;102296.31;4917306;29;20068;-74
2021/09/30 11:42:56;;;;;;;11.55;4.15;;;15.60;99.90;;;15.91;60.84;102282.09;4917139;29;20048;-74
2021/09/30 11:45:29;;;;;;;9.32;3.67;;;15.60;99.90;;;15.99;60.53;102285.59;4931732;29;20409;-74
2021/09/30 11:48:09;;;;;;;7.65;3.47;;;15.60;99.90;;;15.85;59.29;102287.44;4917206;29;20052;-74
2021/09/30 11:50:38;;;;;;;10.55;3.40;;;15.60;99.90;;;15.79;59.12;102279.47;4917038;29;20044;-74
2021/09/30 11:53:10;;;;;;;10.23;3.70;;;15.50;99.90;;;15.79;60.35;102284.81;4916967;29;20040;-74
2021/09/30 11:55:42;;;;;;;9.65;3.83;;;15.50;99.90;;;15.66;61.12;102283.06;4916904;29;20074;-74
2021/09/30 11:58:14;;;;;;;11.98;3.83;;;15.40;99.90;;;15.59;61.97;102267.94;4916801;29;20052;-74
2021/09/30 12:00:47;;;;;;;8.98;3.80;;;15.30;99.90;;;15.70;62.02;102267.03;4916753;29;20052;-74
2021/09/30 12:03:22;;;;;;;8.35;3.85;;;15.40;99.90;;;15.77;62.85;102273.25;4917194;29;20127;-74
2021/09/30 12:05:56;;;;;;;10.65;4.25;;;15.40;99.90;;;15.74;62.83;102270.56;4916732;29;20048;-74
2021/09/30 12:08:25;;;;;;;8.05;4.13;;;15.50;99.90;;;15.86;62.85;102265.19;4931076;29;20056;-74
2021/09/30 12:11:03;;;;;;;11.10;3.92;;;15.50;99.90;;;15.69;62.49;102232.34;4916515;29;20137;-79
2021/09/30 12:13:32;;;;;;;13.23;3.90;;;15.50;99.90;;;15.79;62.28;102255.44;4916851;29;20052;-79
2021/09/30 12:16:05;;;;;;;10.32;4.03;;;15.50;99.90;;;15.82;62.72;102255.41;4931131;29;20379;-79
2021/09/30 12:18:35;;;;;;;12.52;4.03;;;15.60;99.90;;;15.77;61.70;102241.22;4916409;29;20115;-77
2021/09/30 12:21:04;;;;;;;;;;;15.40;99.90;;;15.73;62.00;102245.69;4917074;29;20040;-78
2021/09/30 12:23:32;;;;;;;10.13;3.83;;;15.50;99.90;;;15.92;62.48;102243.81;4915797;29;19951;-76
2021/09/30 12:26:02;;;;;;;8.23;3.45;;;15.60;99.90;;;15.94;61.94;102240.25;4915180;29;20047;-75
2021/09/30 12:28:31;;;;;;;11.85;3.67;;;15.70;99.90;;;16.08;61.95;102230.41;4916349;29;20149;-75
2021/09/30 12:31:07;;;;;;;8.57;3.38;;;15.80;99.90;;;16.25;61.66;102225.88;4916226;29;20062;-74
2021/09/30 12:33:37;;;;;;;8.32;3.67;;;15.90;99.90;;;16.40;62.07;102221.28;4916111;29;20124;-74
2021/09/30 12:36:07;;;;;;;9.88;3.70;;;16.10;99.90;;;16.34;62.37;102195.53;4915889;29;20074;-78
2021/09/30 12:38:38;;;;;;;15.45;4.45;;;16.20;99.90;;;16.55;61.68;102211.44;4915845;29;20055;-77
2021/09/30 12:41:07;;;;;;;;;;;16.30;99.90;;;16.49;61.27;102210.59;4916561;29;20048;-77
2021/09/30 12:43:38;;;;;;;10.52;4.00;;;16.20;99.90;;;16.47;62.20;102217.72;4916062;29;20033;-77
2021/09/30 12:46:11;;;;;;;8.82;4.05;;;16.20;99.90;;;16.16;61.42;102185.00;4916403;29;20048;-75
2021/09/30 12:48:42;;;;;;;12.65;4.10;;;16.10;99.90;;;16.24;61.71;102194.69;4915885;29;20230;-76
2021/09/30 12:51:13;;;;;;;10.95;4.10;;;16.00;99.90;;;16.20;61.95;102210.78;4916460;29;20052;-74
2021/09/30 12:53:44;;;;;;;10.75;3.42;;;15.90;99.90;;;16.23;62.12;102197.38;4915963;29;20402;-76
2021/09/30 12:56:14;;;;;;;;;;;15.90;99.90;;;16.23;62.80;102206.28;4916371;29;20058;-74
2021/09/30 12:58:47;;;;;;;15.20;5.00;;;15.90;99.90;;;16.21;62.89;102185.81;4916035;29;19930;-78
2021/09/30 13:01:27;;;;;;;17.30;4.55;;;15.90;99.90;;;16.15;63.06;102177.84;4916037;29;20344;-74
2021/09/30 13:04:12;;;;;;;;;;;15.90;99.90;;;15.96;63.20;102187.75;4916482;29;20454;-73
2021/09/30 13:06:54;;;;;;;10.90;4.63;;;15.70;99.90;;;15.75;63.82;102122.94;4916229;29;20372;-72
2021/09/30 13:09:26;;;;;;;12.05;5.20;;;15.70;99.90;;;16.06;63.83;102177.91;4915973;29;20044;-75